Latest Weather Observations for Cape Borda

IDS60801

Issued at 7:31 pm CST Thursday 24 September 2020 (issued every 10 minutes, with the page automatically refreshed every 10 minutes)

About weather observations | Map of weather stations | Latest weather observations for SA | Other Formats
Station Details ID: 022823 Name: CAPE BORDA Lat: -35.75 Lon: 136.60 Height: 158.0 m
Data from the previous 72 hours. | See also: Recent months at Cape Borda
Date/Time
CST
Temp
°C
App
Temp
°C
Dew
Point
°C
Rel
Hum
%
Delta-T
°C
Wind Press
QNH
hPa
Press
MSL
hPa
Rain since
9am
mm
Dir  Spd
km/h
Gust
km/h
Spd
kts
Gust
kts
24/07:30pm 7.9 0.5 3.8 75 1.8 SW 32 43 17 23 1009.5 1009.5 3.6
24/07:00pm 7.1 1.3 4.6 84 1.1 SSW 24 37 13 20 1009.4 1009.4 3.6
24/06:30pm 7.1 -0.3 4.1 81 1.3 SSW 32 46 17 25 1009.4 1009.4 3.6
24/06:19pm 7.9 1.2 5.7 86 1.0 SW 30 50 16 27 1009.2 1009.2 3.6
24/06:00pm 8.3 1.0 4.3 76 1.8 SW 32 43 17 23 1009.3 1009.3 3.6
24/05:40pm 8.5 1.7 4.9 78 1.6 SW 30 48 16 26 1009.2 1009.2 3.6
24/05:30pm 8.6 2.0 6.2 85 1.1 SW 30 44 16 24 1009.3 1009.3 3.6
24/05:00pm 6.7 -1.1 4.9 88 0.8 SW 35 54 19 29 1009.3 1009.3 3.6
24/04:56pm 8.2 0.7 4.4 77 1.7 SW 33 54 18 29 1009.1 1009.1 3.4
24/04:30pm 8.9 2.4 6.3 84 1.2 SW 30 43 16 23 1009.2 1009.2 3.4
24/04:00pm 8.6 0.9 6.9 89 0.8 SW 37 54 20 29 1009.2 1009.2 3.4
24/03:54pm 9.1 2.3 6.9 86 1.0 SW 32 54 17 29 1009.2 1009.2 3.4
24/03:30pm 9.5 2.2 7.1 85 1.1 SW 35 48 19 26 1009.3 1009.3 3.4
24/03:18pm 10.1 2.2 6.4 78 1.7 WSW 37 56 20 30 1009.1 1009.1 3.4
24/03:00pm 9.9 2.9 6.1 77 1.8 WSW 32 46 17 25 1009.2 1009.2 3.4
24/02:49pm 9.8 3.0 6.7 81 1.5 SW 32 50 17 27 1009.3 1009.3 3.4
24/02:30pm 9.7 2.2 8.0 89 0.8 SW 37 50 20 27 1009.7 1009.7 3.4
24/02:00pm 10.6 2.4 6.6 76 1.9 WSW 39 56 21 30 1009.8 1009.8 3.4
24/01:32pm 9.4 1.8 7.5 88 0.9 WSW 37 57 20 31 1010.1 1010.1 3.4
24/01:30pm 9.4 2.0 8.3 93 0.5 WSW 37 54 20 29 1010.2 1010.2 3.4
24/01:01pm 10.6 3.1 8.0 84 1.3 WSW 37 56 20 30 1010.5 1010.5 2.8
24/01:00pm 10.4 2.9 8.0 85 1.2 WSW 37 50 20 27 1010.5 1010.5 2.8
24/12:47pm 10.4 3.9 8.2 86 1.1 WSW 32 52 17 28 1010.5 1010.5 2.8
24/12:30pm 10.0 4.5 9.1 94 0.4 WSW 28 37 15 20 1010.9 1010.9 2.8
24/12:00pm 11.3 4.9 8.7 84 1.3 WSW 32 44 17 24 1011.5 1011.4 2.4
24/11:30am 10.9 3.9 8.5 85 1.2 SW 35 46 19 25 1011.9 1011.8 2.4
24/11:00am 10.2 4.4 9.4 95 0.4 WSW 30 39 16 21 1012.2 1012.1 2.4
24/10:41am 9.3 2.4 8.7 96 0.3 WNW 35 61 19 33 1012.4 1012.3 2.4
24/10:40am 9.4 2.4 8.6 95 0.4 WNW 35 61 19 33 1012.4 1012.3 2.4
24/10:37am 10.6 4.5 9.7 94 0.5 WNW 32 61 17 33 1012.3 1012.2 1.8
24/10:30am 10.9 5.3 10.0 94 0.5 WNW 30 43 16 23 1012.4 1012.3 1.8
24/10:22am 10.3 5.4 9.8 97 0.3 WNW 26 35 14 19 1012.6 1012.6 1.8
24/10:00am 8.7 1.0 8.7 100 0.0 W 39 56 21 30 1013.4 1013.4 1.6
24/09:54am 8.9 0.7 8.3 96 0.3 W 41 54 22 29 1013.5 1013.5 1.4
24/09:30am 10.3 3.1 9.1 92 0.6 WNW 37 57 20 31 1013.7 1013.7 0.2
24/09:25am 11.1 3.9 7.8 80 1.6 WNW 35 54 19 29 1013.5 1013.5 0.0
24/09:00am 11.3 4.9 7.0 75 2.1 WNW 30 44 16 24 1013.9 1013.9 1.4
24/08:30am 11.5 4.7 7.0 74 2.2 WNW 32 43 17 23 1014.3 1014.3 1.4
24/08:00am 11.0 4.0 6.7 75 2.0 W 33 44 18 24 1014.5 1014.5 1.2
24/07:30am 10.9 3.7 6.1 72 2.3 WNW 33 46 18 25 1014.7 1014.7 1.2
24/07:00am 10.8 3.9 6.4 74 2.1 WNW 32 43 17 23 1014.9 1014.9 1.2
24/06:30am 10.5 4.4 6.8 78 1.8 W 28 41 15 22 1015.1 1015.1 1.2
24/06:00am 10.1 4.8 7.0 81 1.5 W 24 35 13 19 1015.2 1015.2 1.2
24/05:30am 10.2 3.4 6.7 79 1.7 W 32 41 17 22 1015.3 1015.3 1.2
24/05:00am 9.4 2.9 6.7 83 1.3 W 30 48 16 26 1015.6 1015.6 1.2
24/04:49am 10.2 3.5 7.3 82 1.4 W 32 56 17 30 1015.5 1015.5 1.2
24/04:30am 10.1 4.1 7.2 82 1.4 W 28 39 15 21 1015.7 1015.7 1.2
24/04:00am 9.8 3.2 6.2 78 1.7 W 30 43 16 23 1016.0 1016.0 1.2
24/03:45am 10.2 4.4 7.8 85 1.2 W 28 48 15 26 1016.1 1016.1 1.2
24/03:30am 10.0 5.4 6.5 79 1.6 W 20 30 11 16 1016.3 1016.3 1.2
24/03:00am 9.6 3.9 6.5 81 1.5 WNW 26 35 14 19 1016.8 1016.8 1.2
24/02:42am 10.4 4.6 8.0 85 1.2 WSW 28 46 15 25 1016.9 1016.9 1.2
24/02:30am 10.3 4.0 5.9 74 2.0 WSW 28 39 15 21 1017.0 1017.0 1.2
24/02:00am 9.9 4.8 7.8 87 1.0 SW 24 33 13 18 1017.6 1017.6 1.2
24/01:30am 10.3 5.4 6.8 79 1.7 W 22 32 12 17 1018.1 1018.1 1.2
24/01:00am 9.2 6.7 8.0 92 0.6 SW 11 17 6 9 1018.6 1018.6 1.2
24/12:30am 8.6 4.5 7.8 95 0.4 WSW 19 30 10 16 1019.0 1019.0 1.2
24/12:15am 8.8 2.9 7.6 92 0.6 WSW 28 50 15 27 1019.1 1019.1 1.2
24/12:00am 9.7 5.3 7.3 85 1.1 SW 20 26 11 14 1019.2 1019.2 1.0
 
Date/Time
CST
Temp
°C
App
Temp
°C
Dew
Point
°C
Rel
Hum
%
Delta-T
°C
Wind Press
QNH
hPa
Press
MSL
hPa
Rain since
9am
mm
Dir  Spd
km/h
Gust
km/h
Spd
kts
Gust
kts
23/11:30pm 9.8 5.6 7.4 85 1.1 SW 19 28 10 15 1019.6 1019.6 1.0
23/11:00pm 9.7 5.3 7.5 86 1.1 SW 20 28 11 15 1019.9 1019.9 1.0
23/10:30pm 9.0 6.7 9.0 100 0.0 WSW 11 15 6 8 1020.1 1020.1 1.0
23/10:00pm 9.1 4.4 9.1 100 0.0 WSW 24 33 13 18 1020.6 1020.6 1.0
23/09:30pm 10.0 5.6 7.6 85 1.2 SW 20 28 11 15 1020.8 1020.8 0.2
23/09:00pm 10.6 6.2 6.6 76 1.9 SW 19 26 10 14 1020.7 1020.7 0.2
23/08:30pm 10.6 5.9 6.0 73 2.1 SSW 20 30 11 16 1020.8 1020.8 0.2
23/08:00pm 10.7 5.2 5.7 71 2.3 SW 24 33 13 18 1020.7 1020.7 0.2
23/07:30pm 10.6 5.2 6.2 74 2.1 SW 24 37 13 20 1020.6 1020.6 0.2
23/07:00pm 10.5 4.0 4.6 67 2.7 SW 28 37 15 20 1020.4 1020.4 0.2
23/06:30pm 10.5 5.0 6.1 74 2.1 SW 24 35 13 19 1020.2 1020.2 0.2
23/06:00pm 10.9 5.2 6.5 74 2.1 SW 26 35 14 19 1020.1 1020.1 0.2
23/05:30pm 11.2 5.0 6.3 72 2.3 SW 28 41 15 22 1020.0 1020.0 0.2
23/05:00pm 11.6 4.7 6.5 71 2.4 SW 32 43 17 23 1019.9 1019.9 0.2
23/04:30pm 12.1 5.4 5.5 64 3.1 SW 30 37 16 20 1019.7 1019.7 0.2
23/04:00pm 12.1 5.1 5.9 66 2.9 SW 32 43 17 23 1019.6 1019.6 0.2
23/03:30pm 12.2 5.4 6.7 69 2.6 SW 32 43 17 23 1019.6 1019.6 0.2
23/03:00pm 12.7 6.0 7.4 70 2.6 SW 32 44 17 24 1019.5 1019.5 0.2
23/02:30pm 12.4 4.8 6.0 65 3.0 SW 35 43 19 23 1019.6 1019.6 0.2
23/02:00pm 12.5 5.6 6.5 67 2.9 SW 32 43 17 23 1019.6 1019.6 0.2
23/01:30pm 12.7 6.0 7.2 69 2.7 SW 32 43 17 23 1019.7 1019.7 0.2
23/01:00pm 12.4 5.6 7.9 74 2.2 SW 33 43 18 23 1019.9 1019.9 0.2
23/12:30pm 12.3 5.1 7.6 73 2.3 SW 35 46 19 25 1019.9 1019.9 0.2
23/12:00pm 12.0 5.2 7.9 76 2.0 SW 33 46 18 25 1020.0 1020.0 0.0
23/11:30am 12.2 5.4 7.5 73 2.3 SW 33 46 18 25 1019.9 1019.9 0.0
23/11:00am 12.2 4.8 6.7 69 2.6 SW 35 48 19 26 1019.9 1019.9 0.0
23/10:30am 11.8 4.8 6.9 72 2.4 SW 33 46 18 25 1019.9 1019.9 0.0
23/10:00am 11.6 5.3 7.5 76 2.0 SW 30 43 16 23 1019.7 1019.7 0.0
23/09:30am 11.6 4.4 7.7 77 1.9 SW 35 46 19 25 1019.6 1019.6 0.0
23/09:00am 11.4 4.7 7.3 76 2.0 SW 32 46 17 25 1019.4 1019.4 3.6
23/08:30am 10.9 4.5 8.5 85 1.2 SW 32 43 17 23 1019.0 1019.0 3.6
23/08:00am 10.9 3.5 6.8 76 2.0 SW 35 46 19 25 1018.7 1018.7 3.6
23/07:30am 9.8 3.4 8.7 93 0.5 SW 32 50 17 27 1018.5 1018.5 3.6
23/07:29am 10.3 3.9 8.7 90 0.8 SW 32 50 17 27 1018.4 1018.4 3.6
23/07:00am 10.4 3.7 7.3 81 1.5 SW 32 43 17 23 1017.9 1018.0 3.4
23/06:30am 10.4 4.1 7.3 81 1.5 SW 30 41 16 22 1017.6 1017.6 3.4
23/06:00am 10.5 3.1 6.6 77 1.8 SW 35 48 19 26 1017.2 1017.2 3.4
23/05:30am 10.3 3.5 7.9 85 1.2 SW 33 44 18 24 1016.8 1016.8 3.4
23/05:03am 9.9 3.4 8.0 88 0.9 SW 32 52 17 28 1016.6 1016.6 3.2
23/05:00am 10.2 4.1 8.1 87 1.0 SW 30 41 16 22 1016.6 1016.6 3.2
23/04:30am 9.8 2.8 8.4 91 0.7 SW 35 48 19 26 1016.4 1016.4 3.2
23/04:00am 10.4 4.1 7.6 83 1.4 SW 30 39 16 21 1016.2 1016.2 3.2
23/03:30am 10.5 4.4 8.1 85 1.2 SW 30 41 16 22 1016.2 1016.2 3.2
23/03:00am 10.6 5.2 8.0 84 1.3 SW 26 41 14 22 1016.1 1016.1 3.2
23/02:30am 10.5 4.4 8.3 86 1.1 SW 30 41 16 22 1016.1 1016.1 3.2
23/02:00am 10.6 4.8 7.8 83 1.4 SW 28 41 15 22 1016.2 1016.2 3.2
23/01:30am 10.5 4.6 7.7 83 1.4 SW 28 39 15 21 1016.2 1016.2 3.2
23/01:00am 9.9 3.3 7.7 86 1.1 SW 32 48 17 26 1016.3 1016.3 3.2
23/12:52am 10.7 4.5 7.9 83 1.4 SW 30 48 16 26 1016.2 1016.2 3.2
23/12:30am 10.7 4.5 7.9 83 1.4 SW 30 43 16 23 1016.2 1016.2 3.2
23/12:00am 10.5 4.2 8.8 89 0.8 WSW 32 43 17 23 1016.3 1016.3 3.2
 
Date/Time
CST
Temp
°C
App
Temp
°C
Dew
Point
°C
Rel
Hum
%
Delta-T
°C
Wind Press
QNH
hPa
Press
MSL
hPa
Rain since
9am
mm
Dir  Spd
km/h
Gust
km/h
Spd
kts
Gust
kts
22/11:30pm 10.5 4.0 8.8 89 0.8 WSW 33 46 18 25 1016.3 1016.3 3.2
22/11:00pm 10.5 3.8 8.3 86 1.1 WSW 33 46 18 25 1016.3 1016.3 3.2
22/10:30pm 10.8 4.6 9.2 90 0.8 WSW 32 48 17 26 1016.2 1016.2 3.2
22/10:04pm 10.4 4.0 9.2 92 0.6 WSW 33 52 18 28 1016.3 1016.3 3.2
22/10:00pm 10.7 3.8 9.0 89 0.8 WSW 35 52 19 28 1016.2 1016.2 3.2
22/09:30pm 11.0 4.8 9.4 90 0.8 WSW 32 46 17 25 1016.1 1016.1 3.2
22/09:00pm 10.2 3.8 9.3 94 0.5 WSW 33 48 18 26 1016.0 1016.0 3.2
22/08:30pm 11.0 4.6 9.4 90 0.8 WSW 33 48 18 26 1015.7 1015.7 3.0
22/08:28pm 10.9 5.1 9.3 90 0.8 WSW 30 48 16 26 1015.7 1015.7 3.0
22/08:00pm 11.0 5.0 10.2 95 0.4 W 32 44 17 24 1015.5 1015.5 1.2
22/07:49pm 10.8 5.2 10.0 95 0.4 W 30 48 16 26 1015.4 1015.4 1.2
22/07:30pm 11.2 3.7 9.3 88 1.0 W 39 50 21 27 1015.1 1015.1 1.2
22/07:00pm 11.0 4.3 9.6 91 0.7 W 35 44 19 24 1014.9 1014.9 1.2
22/06:30pm 11.5 5.4 9.9 90 0.8 W 32 43 17 23 1014.5 1014.5 1.0
22/06:16pm 11.3 5.8 9.2 87 1.1 W 28 46 15 25 1014.3 1014.3 1.0
22/06:00pm 11.1 3.9 7.8 80 1.6 W 35 48 19 26 1014.3 1014.3 1.0
22/05:30pm 11.7 5.4 9.6 87 1.1 W 33 48 18 26 1013.9 1013.9 1.0
22/05:00pm 10.8 4.7 9.9 94 0.5 WSW 32 43 17 23 1013.8 1013.8 1.0
22/04:35pm 12.7 6.5 9.9 83 1.4 W 33 52 18 28 1013.4 1013.4 1.0
22/04:30pm 12.8 6.9 10.3 85 1.3 W 32 43 17 23 1013.3 1013.3 1.0
22/04:02pm 12.2 6.0 9.9 86 1.2 W 33 57 18 31 1013.2 1013.2 1.0
22/04:00pm 12.8 6.7 10.5 86 1.2 W 33 46 18 25 1013.2 1013.2 1.0
22/03:30pm 12.9 6.5 9.5 80 1.7 W 33 46 18 25 1013.1 1013.1 1.0
22/03:00pm 12.5 6.0 9.1 80 1.7 W 33 46 18 25 1012.9 1012.9 1.0
22/02:30pm 12.9 7.3 10.1 83 1.5 W 30 41 16 22 1012.7 1012.7 0.2
22/02:00pm 13.1 7.0 10.6 85 1.3 WSW 33 44 18 24 1012.5 1012.5 0.2
22/01:30pm 12.4 6.2 10.0 85 1.2 W 33 48 18 26 1012.3 1012.2 0.2
22/01:25pm 12.2 5.9 11.1 93 0.6 W 35 54 19 29 1012.4 1012.3 0.2
22/01:00pm 13.9 6.6 10.3 79 1.9 W 39 48 21 26 1012.2 1012.1 0.2
22/12:30pm 13.6 6.4 9.3 75 2.2 W 37 48 20 26 1012.2 1012.1 0.2
22/12:00pm 13.8 7.7 9.6 76 2.2 W 32 41 17 22 1012.1 1012.0 0.2
22/11:30am 13.1 6.8 9.0 76 2.1 W 32 46 17 25 1011.8 1011.7 0.2
22/11:00am 12.9 7.3 10.3 84 1.4 WSW 30 41 16 22 1011.6 1011.5 0.2
22/10:30am 11.8 5.6 9.9 88 1.0 WSW 33 54 18 29 1011.2 1011.2 0.2
22/10:08am 11.7 5.6 10.3 91 0.7 W 33 56 18 30 1011.1 1011.1 0.0
22/10:00am 13.0 7.2 10.7 86 1.2 WSW 32 43 17 23 1011.0 1011.0 0.0
22/09:30am 11.3 5.1 9.2 87 1.1 SW 32 46 17 25 1010.6 1010.6 0.0
22/09:02am 11.1 5.1 10.2 94 0.5 W 32 50 17 27 1010.3 1010.3 0.0
22/09:00am 11.3 4.8 10.4 94 0.5 W 35 50 19 27 1010.3 1010.3 4.4
22/08:50am 11.8 6.3 10.4 91 0.7 WSW 30 48 16 26 1010.0 1010.0 4.4
22/08:30am 11.3 5.8 10.5 95 0.4 WSW 30 43 16 23 1009.7 1009.7 4.4
22/08:11am 10.9 3.7 9.3 90 0.8 WSW 37 57 20 31 1009.2 1009.2 3.8
22/08:00am 11.9 4.2 10.0 88 1.0 W 41 54 22 29 1009.0 1009.0 3.8
22/07:33am 11.6 3.8 9.7 88 1.0 W 41 59 22 32 1008.7 1008.7 3.8
22/07:30am 11.6 3.4 9.7 88 1.0 W 43 59 23 32 1008.6 1008.6 3.8
22/07:06am 11.5 3.0 9.1 85 1.2 W 44 63 24 34 1008.2 1008.2 3.8
22/07:00am 11.5 3.8 10.1 91 0.7 W 41 56 22 30 1008.1 1008.1 3.8
22/06:30am 11.4 2.7 9.8 90 0.8 W 46 67 25 36 1007.5 1007.5 3.8
22/06:00am 11.5 2.3 9.4 87 1.1 W 48 67 26 36 1007.0 1006.9 2.8
22/05:32am 11.3 2.0 9.2 87 1.1 W 48 67 26 36 1006.6 1006.5 2.8
22/05:30am 11.6 2.3 9.3 86 1.2 W 48 65 26 35 1006.5 1006.4 2.8
22/05:00am 11.5 2.6 9.2 86 1.2 W 46 69 25 37 1006.1 1006.0 2.8
22/04:45am 11.4 1.3 9.0 85 1.2 W 52 72 28 39 1005.9 1005.8 2.8
22/04:30am 11.7 2.3 8.7 82 1.5 W 48 63 26 34 1005.9 1005.8 2.8
22/04:00am 10.9 1.8 9.7 92 0.6 W 48 69 26 37 1005.7 1005.6 2.8
22/03:30am 11.0 1.3 8.9 87 1.1 W 50 69 27 37 1005.5 1005.4 2.6
22/03:00am 11.6 1.3 8.1 79 1.7 W 52 72 28 39 1005.4 1005.3 2.4
22/02:30am 11.4 2.9 9.1 86 1.2 W 44 63 24 34 1005.3 1005.2 2.4
22/02:00am 10.1 -0.2 8.2 88 0.9 W 52 70 28 38 1005.5 1005.4 2.4
22/01:30am 11.6 1.7 8.1 79 1.7 W 50 70 27 38 1005.6 1005.5 2.4
22/01:00am 11.3 1.8 8.5 83 1.4 WNW 48 69 26 37 1005.6 1005.5 2.4
22/12:30am 11.0 2.0 8.8 86 1.1 WNW 46 67 25 36 1005.8 1005.7 2.2
22/12:00am 10.0 0.6 8.6 91 0.7 WNW 48 72 26 39 1005.9 1005.8 2.2
 
Date/Time
CST
Temp
°C
App
Temp
°C
Dew
Point
°C
Rel
Hum
%
Delta-T
°C
Wind Press
QNH
hPa
Press
MSL
hPa
Rain since
9am
mm
Dir  Spd
km/h
Gust
km/h
Spd
kts
Gust
kts
21/11:41pm 11.9 2.4 8.2 78 1.8 W 48 67 26 36 1005.6 1005.5 2.0
21/11:30pm 11.8 2.7 8.3 79 1.7 WNW 46 61 25 33 1005.7 1005.6 2.0
21/11:00pm 11.3 2.8 9.2 87 1.1 W 44 65 24 35 1005.8 1005.7 2.0
21/10:59pm 11.2 2.6 8.9 86 1.2 WNW 44 65 24 35 1005.8 1005.7 2.0
21/10:30pm 11.6 3.2 9.0 84 1.3 WNW 43 56 23 30 1005.8 1005.7 1.8
21/10:05pm 12.0 2.5 8.3 78 1.8 WNW 48 67 26 36 1005.9 1005.8 1.8
21/10:00pm 12.1 2.0 7.6 74 2.2 WNW 50 67 27 36 1005.8 1005.7 1.8
21/09:38pm 11.7 3.2 8.7 82 1.5 WNW 43 61 23 33 1005.9 1005.8 1.8
21/09:30pm 11.6 2.6 8.8 83 1.4 WNW 46 63 25 34 1005.9 1005.8 1.8
21/09:00pm 10.5 1.0 8.4 87 1.0 W 48 72 26 39 1005.6 1005.5 1.8
21/08:41pm 12.0 3.2 8.1 77 1.9 W 44 63 24 34 1005.5 1005.4 1.8
21/08:30pm 12.1 2.9 8.2 77 1.9 W 46 61 25 33 1005.4 1005.3 1.8
21/08:00pm 12.0 3.1 7.7 75 2.1 W 44 59 24 32 1005.1 1005.0 1.8
21/07:40pm 12.1 2.3 7.2 72 2.4 W 48 67 26 36 1004.9 1004.8 1.8

Other formats

Comma delimited format used in spreadsheet applications
http://www.bom.gov.au/fwo/IDS60801/IDS60801.95805.axf

JavaScript Object Notation format (JSON) in row-major order
http://www.bom.gov.au/fwo/IDS60801/IDS60801.95805.json

Data quality

Most of these data are generated automatically and are frequently updated. Quality checks on data are not normally performed. It is possible for incorrect values to appear. Refer to information at About Latest Weather Observations and please check the disclaimer before using these data.